Time;durP1;ratioP1;P1;durP2;ratioP2;P2;SDS_P1;SDS_P2;PMS_P1;PMS_P2;Temp;Humidity;BMP_temperature;BMP_pressure;BME280_temperature;BME280_humidity;BME280_pressure;Samples;Min_cycle;Max_cycle;Signal;HPM_P1;HPM_P2
2023/04/05 00:00:34;;;;;;;10.50;7.33;;;1.10;99.90;;;;;;5055914;28;20481;-60
2023/04/05 00:03:03;;;;;;;13.97;7.00;;;1.10;99.90;;;;;;5057026;28;20462;-61
2023/04/05 00:05:33;;;;;;;10.53;7.13;;;1.10;99.90;;;;;;5056191;28;20463;-56
2023/04/05 00:08:01;;;;;;;8.13;6.30;;;1.00;99.90;;;;;;5058710;28;20770;-58
2023/04/05 00:10:28;;;;;;;8.50;5.83;;;1.00;99.90;;;;;;5058165;28;20522;-59
2023/04/05 00:12:58;;;;;;;11.23;6.03;;;0.90;99.90;;;;;;5057090;28;20837;-60
2023/04/05 00:15:27;;;;;;;9.57;5.60;;;0.90;99.90;;;;;;5057167;28;20455;-56
2023/04/05 00:17:54;;;;;;;10.23;6.20;;;1.00;99.90;;;;;;5053854;28;20465;-60
2023/04/05 00:20:23;;;;;;;13.73;7.03;;;1.10;99.90;;;;;;5055756;28;20458;-57
2023/04/05 00:22:50;;;;;;;7.93;6.20;;;1.10;99.90;;;;;;5055878;28;20465;-55
2023/04/05 00:25:18;;;;;;;12.30;6.63;;;1.00;99.90;;;;;;5056730;28;20476;-59
2023/04/05 00:27:45;;;;;;;14.23;7.17;;;1.00;99.90;;;;;;5056374;28;20978;-58
2023/04/05 00:30:19;;;;;;;10.83;6.43;;;1.00;99.90;;;;;;5053270;28;20490;-55
2023/04/05 00:32:48;;;;;;;10.07;7.30;;;1.00;99.90;;;;;;5056937;28;20520;-54
2023/04/05 00:35:15;;;;;;;8.97;6.63;;;0.90;99.90;;;;;;5056631;28;20528;-57
2023/04/05 00:37:47;;;;;;;9.47;7.20;;;0.90;99.90;;;;;;5055560;28;20964;-57
2023/04/05 00:40:15;;;;;;;8.57;6.37;;;0.90;99.90;;;;;;5054095;28;20465;-59
2023/04/05 00:42:45;;;;;;;11.47;6.63;;;0.90;99.90;;;;;;5056452;28;20887;-57
2023/04/05 00:45:12;;;;;;;7.57;6.17;;;0.90;99.90;;;;;;5053838;28;20558;-60
2023/04/05 00:47:41;;;;;;;8.87;6.77;;;0.90;99.90;;;;;;5055809;28;20484;-59
2023/04/05 00:50:11;;;;;;;10.03;7.23;;;0.90;99.90;;;;;;5056038;28;20487;-59
2023/04/05 00:52:39;;;;;;;8.53;7.43;;;0.90;99.90;;;;;;5055271;28;20735;-58
2023/04/05 00:55:09;;;;;;;10.93;6.43;;;0.80;99.90;;;;;;5053338;28;20480;-55
2023/04/05 00:57:40;;;;;;;8.30;6.50;;;0.80;99.90;;;;;;5055844;28;20484;-60
2023/04/05 01:00:10;;;;;;;10.43;6.63;;;0.70;99.90;;;;;;5052810;28;20504;-59
2023/04/05 01:02:51;;;;;;;9.10;6.90;;;0.70;99.90;;;;;;5055088;28;20898;-58
2023/04/05 01:05:31;;;;;;;8.97;6.43;;;0.60;99.90;;;;;;5054102;28;20768;-54
2023/04/05 01:08:05;;;;;;;10.50;6.03;;;0.60;99.90;;;;;;5054465;28;20473;-55
2023/04/05 01:10:39;;;;;;;9.33;6.33;;;0.50;99.90;;;;;;5055477;28;20504;-57
2023/04/05 01:13:06;;;;;;;10.60;7.00;;;0.50;99.90;;;;;;5056013;28;20469;-54
2023/04/05 01:15:33;;;;;;;12.73;7.77;;;0.40;99.90;;;;;;5055547;28;20469;-57
2023/04/05 01:18:01;;;;;;;15.73;8.10;;;0.30;1.00;;;;;;5055765;28;20465;-54
2023/04/05 01:20:34;;;;;;;9.40;7.70;;;0.30;1.00;;;;;;5054652;28;20462;-60
2023/04/05 01:23:39;;;;;;;10.07;7.10;;;0.30;1.00;;;;;;5055199;28;20458;-58
2023/04/05 01:26:46;;;;;;;13.30;7.30;;;0.20;1.00;;;;;;5042982;28;20480;-55
2023/04/05 01:29:49;;;;;;;10.33;7.80;;;0.20;1.00;;;;;;5033620;28;20929;-59
2023/04/05 01:32:30;;;;;;;10.00;7.20;;;0.10;1.00;;;;;;5053599;28;20467;-57
2023/04/05 01:35:06;;;;;;;14.97;7.27;;;0.10;1.00;;;;;;5052314;28;20454;-59
2023/04/05 01:37:36;;;;;;;9.47;7.10;;;0.10;1.00;;;;;;5053490;28;20578;-61
2023/04/05 01:40:05;;;;;;;12.83;6.80;;;0.10;1.00;;;;;;5055413;28;20441;-54
2023/04/05 01:42:32;;;;;;;11.50;7.53;;;0.10;1.00;;;;;;5055656;28;20491;-59
2023/04/05 01:44:59;;;;;;;10.60;7.47;;;0.00;1.00;;;;;;5055477;28;20522;-55
2023/04/05 01:47:28;;;;;;;10.03;6.47;;;0.00;1.00;;;;;;5054601;28;20453;-60
2023/04/05 01:49:55;;;;;;;10.87;7.30;;;0.00;1.00;;;;;;5054923;28;20799;-58
2023/04/05 01:52:22;;;;;;;9.20;6.37;;;0.00;1.00;;;;;;5055652;28;20465;-57
2023/04/05 01:54:50;;;;;;;7.50;5.60;;;-0.10;1.00;;;;;;5055040;28;20575;-59
2023/04/05 01:57:17;;;;;;;10.97;7.07;;;-0.20;1.00;;;;;;5056101;28;20924;-58
2023/04/05 01:59:44;;;;;;;10.13;6.87;;;-0.30;1.00;;;;;;5055804;28;20464;-60
2023/04/05 02:02:11;;;;;;;9.60;6.77;;;-0.30;1.00;;;;;;5055967;28;20756;-57
2023/04/05 02:04:41;;;;;;;10.80;6.90;;;-0.30;1.00;;;;;;5055160;28;20474;-59
2023/04/05 02:07:09;;;;;;;9.73;7.30;;;-0.30;1.00;;;;;;5055641;28;20565;-58
2023/04/05 02:09:36;;;;;;;9.87;7.07;;;-0.40;1.00;;;;;;5055691;28;20468;-53
2023/04/05 02:12:07;;;;;;;11.90;7.83;;;-0.40;1.00;;;;;;5055646;28;20493;-60
2023/04/05 02:14:34;;;;;;;11.03;6.90;;;-0.40;1.00;;;;;;5055113;28;20532;-60
2023/04/05 02:17:02;;;;;;;10.80;7.00;;;-0.40;1.00;;;;;;5055221;28;20464;-60
2023/04/05 02:19:36;;;;;;;9.47;7.17;;;-0.40;1.00;;;;;;5055282;28;20556;-54
2023/04/05 02:22:04;;;;;;;9.87;7.80;;;-0.50;1.00;;;;;;5054607;28;20530;-58
2023/04/05 02:24:31;;;;;;;10.40;6.70;;;-0.50;1.00;;;;;;5055364;28;20468;-59
2023/04/05 02:26:59;;;;;;;10.70;7.53;;;-0.50;1.00;;;;;;5055447;28;20471;-60
2023/04/05 02:29:26;;;;;;;13.10;7.90;;;-0.50;1.00;;;;;;5054488;28;20963;-57
2023/04/05 02:31:53;;;;;;;13.00;7.27;;;-0.60;1.00;;;;;;5055209;28;20496;-59
2023/04/05 02:34:21;;;;;;;10.27;7.10;;;-0.60;1.00;;;;;;5055694;28;20466;-57
2023/04/05 02:36:49;;;;;;;11.50;6.90;;;-0.60;1.00;;;;;;5056319;28;20462;-57
2023/04/05 02:39:18;;;;;;;10.90;7.90;;;-0.60;1.00;;;;;;5057128;28;20476;-54
2023/04/05 02:41:45;;;;;;;9.73;6.83;;;-0.70;1.00;;;;;;5056343;28;20562;-60
2023/04/05 02:44:13;;;;;;;10.10;8.20;;;-0.70;1.00;;;;;;5056121;28;20833;-54
2023/04/05 02:46:40;;;;;;;11.63;7.70;;;-0.70;1.00;;;;;;5056064;28;20466;-58
2023/04/05 02:49:08;;;;;;;10.20;7.63;;;-0.80;1.00;;;;;;5054874;28;20485;-57
2023/04/05 02:51:35;;;;;;;11.77;7.40;;;-0.70;1.00;;;;;;5056148;28;20487;-55
2023/04/05 02:54:02;;;;;;;9.50;6.40;;;-0.70;1.00;;;;;;5056427;28;20435;-55
2023/04/05 02:56:31;;;;;;;10.33;7.50;;;-0.70;1.00;;;;;;5055789;28;20464;-59
2023/04/05 02:58:58;;;;;;;11.07;7.43;;;-0.70;1.00;;;;;;5056605;28;20462;-55
2023/04/05 03:01:26;;;;;;;8.10;6.50;;;-0.80;1.00;;;;;;5059964;28;20466;-60
2023/04/05 03:03:53;;;;;;;11.10;6.60;;;-0.80;1.00;;;;;;5059776;28;20548;-57
2023/04/05 03:06:21;;;;;;;10.10;6.43;;;-0.90;1.00;;;;;;5059668;28;20462;-55
2023/04/05 03:08:48;;;;;;;9.40;6.53;;;-0.80;1.00;;;;;;5059210;28;20913;-55
2023/04/05 03:11:16;;;;;;;10.43;6.57;;;-0.80;1.00;;;;;;5059733;28;20489;-59
2023/04/05 03:13:45;;;;;;;9.63;6.93;;;-0.90;1.00;;;;;;5060224;28;20467;-56
2023/04/05 03:16:12;;;;;;;9.80;7.50;;;-0.90;1.00;;;;;;5059008;28;20549;-60
2023/04/05 03:18:39;;;;;;;14.47;6.90;;;-0.90;1.00;;;;;;5059399;28;20466;-61
2023/04/05 03:21:10;;;;;;;10.10;6.70;;;-0.90;1.00;;;;;;5060169;28;20505;-59
2023/04/05 03:23:37;;;;;;;10.97;7.47;;;-0.90;1.00;;;;;;5060787;28;20498;-61
2023/04/05 03:26:05;;;;;;;11.93;7.67;;;-0.80;1.00;;;;;;5059391;28;20451;-61
2023/04/05 03:28:32;;;;;;;12.33;8.93;;;-0.90;1.00;;;;;;5060088;28;20474;-59
2023/04/05 03:31:01;;;;;;;10.43;6.53;;;-1.00;1.00;;;;;;5060345;28;20482;-61
2023/04/05 03:33:28;;;;;;;10.00;7.10;;;-1.00;1.00;;;;;;5060995;28;20464;-61
2023/04/05 03:35:57;;;;;;;10.27;7.20;;;-1.00;1.00;;;;;;5061139;28;20778;-61
2023/04/05 03:38:24;;;;;;;10.80;7.77;;;-1.10;1.00;;;;;;5060501;28;20494;-60
2023/04/05 03:40:51;;;;;;;13.17;8.00;;;-1.20;1.00;;;;;;5060538;28;20687;-54
2023/04/05 03:43:26;;;;;;;13.97;8.17;;;-1.10;1.00;;;;;;5059767;28;20525;-59
2023/04/05 03:46:00;;;;;;;11.37;6.50;;;-1.00;1.00;;;;;;5061292;28;20476;-62
2023/04/05 03:48:27;;;;;;;11.13;7.03;;;-1.10;1.00;;;;;;5060648;28;20515;-59
2023/04/05 03:50:55;;;;;;;9.50;6.60;;;-1.10;1.00;;;;;;5060822;28;20803;-58
2023/04/05 03:53:22;;;;;;;9.60;6.90;;;-1.10;5.10;;;;;;5059801;28;20558;-59
2023/04/05 03:55:52;;;;;;;10.03;7.20;;;-1.10;1.00;;;;;;5059925;28;20467;-60
2023/04/05 03:58:20;;;;;;;13.00;7.53;;;-1.20;3.90;;;;;;5060606;28;20493;-59
2023/04/05 04:00:47;;;;;;;10.33;6.77;;;-1.20;31.30;;;;;;5059260;28;20899;-59
2023/04/05 04:03:16;;;;;;;7.97;6.50;;;-1.20;15.10;;;;;;5060365;28;20780;-57
2023/04/05 04:05:43;;;;;;;18.30;7.20;;;-1.20;3.90;;;;;;5059802;28;20462;-58
2023/04/05 04:08:10;;;;;;;13.00;7.60;;;-1.30;1.00;;;;;;5059192;28;20464;-56
2023/04/05 04:10:37;;;;;;;11.00;6.90;;;-1.30;1.00;;;;;;5058794;28;20585;-59
2023/04/05 04:13:04;;;;;;;13.37;6.23;;;-1.40;1.00;;;;;;5060197;28;20569;-59
2023/04/05 04:15:32;;;;;;;11.47;6.57;;;-1.40;1.00;;;;;;5060039;28;20502;-57
2023/04/05 04:17:59;;;;;;;12.87;7.63;;;-1.40;1.00;;;;;;5058619;28;20780;-55
2023/04/05 04:20:27;;;;;;;11.73;7.03;;;-1.40;1.00;;;;;;5058910;28;20462;-60
2023/04/05 04:22:56;;;;;;;12.20;7.03;;;-1.30;1.00;;;;;;5057849;28;20525;-60
2023/04/05 04:25:25;;;;;;;9.23;6.93;;;-1.30;1.00;;;;;;5058906;28;20472;-60
2023/04/05 04:27:53;;;;;;;10.33;7.30;;;-1.40;1.00;;;;;;5058011;28;20481;-60
2023/04/05 04:30:22;;;;;;;12.93;8.50;;;-1.40;1.00;;;;;;5057528;28;20580;-54
2023/04/05 04:32:58;;;;;;;10.70;7.20;;;-1.40;1.00;;;;;;5057885;28;20494;-55
2023/04/05 04:35:29;;;;;;;9.77;6.87;;;-1.40;1.00;;;;;;5057575;28;20470;-58
2023/04/05 04:37:57;;;;;;;11.67;7.70;;;-1.40;3.00;;;;;;5056981;28;20674;-59
2023/04/05 04:40:28;;;;;;;10.10;7.53;;;-1.40;7.10;;;;;;5056589;28;20466;-57
2023/04/05 04:42:57;;;;;;;11.13;8.30;;;-1.50;41.10;;;;;;5058029;28;20817;-58
2023/04/05 04:45:25;;;;;;;13.20;8.33;;;-1.50;50.50;;;;;;5058523;28;20524;-58
2023/04/05 04:47:53;;;;;;;10.87;7.40;;;-1.40;97.50;;;;;;5058137;28;20557;-57
2023/04/05 04:50:21;;;;;;;11.17;8.00;;;-1.40;79.80;;;;;;5057814;28;20499;-56
2023/04/05 04:52:49;;;;;;;11.30;7.80;;;-1.50;28.20;;;;;;5058217;28;20916;-57
2023/04/05 04:55:17;;;;;;;12.80;7.93;;;-1.50;18.10;;;;;;5057273;28;20561;-54
2023/04/05 04:57:44;;;;;;;11.00;7.20;;;-1.50;28.20;;;;;;5058166;28;20976;-59
2023/04/05 05:00:14;;;;;;;11.13;7.43;;;-1.40;57.20;;;;;;5056659;28;20568;-57
2023/04/05 05:02:42;;;;;;;10.70;7.30;;;-1.50;58.90;;;;;;5056961;28;20458;-59
2023/04/05 05:05:10;;;;;;;9.83;6.77;;;-1.50;64.30;;;;;;5057479;28;20520;-55
2023/04/05 05:07:40;;;;;;;14.13;8.63;;;-1.50;88.20;;;;;;5057286;28;20462;-58
2023/04/05 05:10:10;;;;;;;11.83;7.70;;;-1.50;28.40;;;;;;5056861;28;20459;-57
2023/04/05 05:12:39;;;;;;;17.93;10.33;;;-1.50;84.80;;;;;;5056761;28;20486;-55
2023/04/05 05:15:07;;;;;;;11.80;8.87;;;-1.50;99.90;;;;;;5057231;28;20468;-55
2023/04/05 05:17:36;;;;;;;13.80;8.40;;;-1.50;99.90;;;;;;5057316;28;20567;-59
2023/04/05 05:20:05;;;;;;;11.47;7.80;;;-1.60;99.90;;;;;;5057030;28;20982;-59
2023/04/05 05:22:32;;;;;;;11.00;6.90;;;-1.50;99.90;;;;;;5054372;28;20809;-59
2023/04/05 05:24:59;;;;;;;15.00;8.77;;;-1.40;99.90;;;;;;5056121;28;20519;-59
2023/04/05 05:27:28;;;;;;;12.67;7.90;;;-1.40;99.90;;;;;;5055974;28;20525;-60
2023/04/05 05:29:55;;;;;;;14.03;7.77;;;-1.30;99.90;;;;;;5055352;28;20466;-59
2023/04/05 05:32:23;;;;;;;11.90;7.90;;;-1.20;99.90;;;;;;5056278;28;21029;-55
2023/04/05 05:34:50;;;;;;;13.60;7.20;;;-1.20;99.90;;;;;;5055929;28;20845;-58
2023/04/05 05:37:17;;;;;;;9.77;6.70;;;-1.10;99.90;;;;;;5056631;28;20482;-61
2023/04/05 05:39:45;;;;;;;9.57;7.30;;;-1.10;99.90;;;;;;5057133;28;20469;-59
2023/04/05 05:42:12;;;;;;;14.90;7.33;;;-1.00;99.90;;;;;;5055917;28;20556;-61
2023/04/05 05:44:41;;;;;;;13.07;7.80;;;-1.00;85.20;;;;;;5055236;28;20462;-62
2023/04/05 05:47:08;;;;;;;10.50;8.63;;;-1.10;7.70;;;;;;5053045;28;20950;-59
2023/04/05 05:49:35;;;;;;;13.57;8.53;;;-1.00;1.40;;;;;;5055673;28;20463;-61
2023/04/05 05:52:03;;;;;;;15.40;8.60;;;-1.00;1.00;;;;;;5054061;28;20489;-60
2023/04/05 05:54:30;;;;;;;12.60;7.70;;;-0.90;1.00;;;;;;5053982;28;20455;-62
2023/04/05 05:56:58;;;;;;;10.57;8.50;;;-0.80;1.00;;;;;;5055900;28;20462;-61
2023/04/05 05:59:25;;;;;;;13.10;8.97;;;-0.60;24.80;;;;;;5055745;28;20769;-61
2023/04/05 06:01:55;;;;;;;11.77;7.97;;;-0.60;17.50;;;;;;5055668;28;20887;-60
2023/04/05 06:04:22;;;;;;;13.10;8.83;;;-0.50;8.80;;;;;;5054363;28;20472;-59
2023/04/05 06:06:50;;;;;;;16.57;11.83;;;-0.40;17.80;;;;;;5054269;28;20903;-59
2023/04/05 06:09:17;;;;;;;16.37;9.87;;;-0.20;20.80;;;;;;5055689;28;20465;-61
2023/04/05 06:11:44;;;;;;;16.50;10.03;;;0.00;40.20;;;;;;5057609;28;20785;-61
2023/04/05 06:14:12;;;;;;;13.17;9.77;;;0.10;37.70;;;;;;5058112;28;20486;-61
2023/04/05 06:16:39;;;;;;;13.57;9.50;;;0.30;2.90;;;;;;5056963;28;20449;-61
2023/04/05 06:19:07;;;;;;;13.80;9.97;;;0.50;1.00;;;;;;5056933;28;20467;-61
2023/04/05 06:21:35;;;;;;;16.53;10.20;;;0.70;1.00;;;;;;5056729;28;20461;-59
2023/04/05 06:24:02;;;;;;;16.47;12.20;;;1.00;1.00;;;;;;5054168;28;20462;-61
2023/04/05 06:26:29;;;;;;;17.20;13.00;;;1.20;1.00;;;;;;5054198;28;20465;-60
2023/04/05 06:28:56;;;;;;;17.67;14.33;;;1.60;1.00;;;;;;5055603;28;20501;-60
2023/04/05 06:31:27;;;;;;;16.90;11.93;;;1.70;1.00;;;;;;5056583;28;20505;-61
2023/04/05 06:33:54;;;;;;;19.60;11.93;;;2.10;1.00;;;;;;5055430;28;20463;-62
2023/04/05 06:36:23;;;;;;;15.00;11.77;;;2.30;1.00;;;;;;5056355;28;20518;-62
2023/04/05 06:38:50;;;;;;;18.73;11.20;;;2.70;1.00;;;;;;5056655;28;20490;-62
2023/04/05 06:41:18;;;;;;;14.33;10.70;;;3.00;99.90;;;;;;5057795;28;20458;-63
2023/04/05 06:43:45;;;;;;;16.53;13.40;;;3.20;99.90;;;;;;5056562;28;20458;-63
2023/04/05 06:46:12;;;;;;;13.60;11.00;;;3.30;99.90;;;;;;5056307;28;20466;-63
2023/04/05 06:48:41;;;;;;;13.30;10.47;;;3.60;99.90;;;;;;5055345;28;20459;-64
2023/04/05 06:51:08;;;;;;;19.37;12.90;;;4.00;99.90;;;;;;5054833;28;20501;-64
2023/04/05 06:53:36;;;;;;;18.10;11.83;;;4.10;99.90;;;;;;5053840;28;20592;-64
2023/04/05 06:56:04;;;;;;;16.47;10.63;;;4.40;99.90;;;;;;5054388;28;20461;-64
2023/04/05 06:58:31;;;;;;;17.27;10.53;;;4.80;99.90;;;;;;5053794;28;20462;-64
2023/04/05 07:00:59;;;;;;;15.93;10.30;;;5.00;99.90;;;;;;5053193;28;20456;-63
2023/04/05 07:03:27;;;;;;;17.53;11.80;;;5.10;99.90;;;;;;5053974;28;20462;-61
2023/04/05 07:05:55;;;;;;;15.83;12.53;;;5.50;99.90;;;;;;5056251;28;20460;-61
2023/04/05 07:08:23;;;;;;;15.83;9.23;;;5.40;99.90;;;;;;5056427;28;20502;-60
2023/04/05 07:10:52;;;;;;;9.13;8.20;;;5.10;99.90;;;;;;5056486;28;20917;-59
2023/04/05 07:13:21;;;;;;;11.80;7.73;;;5.20;99.90;;;;;;5056369;28;20588;-60
2023/04/05 07:15:48;;;;;;;9.03;7.10;;;5.60;99.90;;;;;;5054879;28;20468;-59
2023/04/05 07:18:15;;;;;;;9.70;6.90;;;6.00;99.90;;;;;;5056119;28;20458;-60
2023/04/05 07:20:42;;;;;;;8.80;6.80;;;6.20;99.90;;;;;;5055974;28;20894;-59
2023/04/05 07:23:09;;;;;;;11.63;7.57;;;6.60;99.90;;;;;;5056143;28;20464;-60
2023/04/05 07:25:39;;;;;;;8.70;7.43;;;7.20;99.90;;;;;;5056555;28;20466;-59
2023/04/05 07:28:08;;;;;;;8.30;6.23;;;7.40;99.90;;;;;;5056108;28;20462;-62
2023/04/05 07:30:36;;;;;;;10.00;7.20;;;7.30;99.90;;;;;;5055574;28;20464;-60
2023/04/05 07:33:03;;;;;;;7.33;5.93;;;7.70;99.90;;;;;;5056431;28;20494;-58
2023/04/05 07:35:31;;;;;;;9.40;6.73;;;8.10;99.90;;;;;;5056753;28;20468;-59
2023/04/05 07:37:58;;;;;;;7.03;6.20;;;8.40;99.90;;;;;;5054303;28;20509;-61
2023/04/05 07:40:25;;;;;;;9.43;6.90;;;8.60;99.90;;;;;;5054732;28;20917;-62
2023/04/05 07:42:52;;;;;;;9.97;6.90;;;8.70;99.90;;;;;;5054948;28;20457;-60
2023/04/05 07:45:20;;;;;;;10.50;6.83;;;9.00;99.90;;;;;;5055777;28;20488;-60
2023/04/05 07:47:48;;;;;;;7.37;6.17;;;8.80;99.90;;;;;;5058984;28;20458;-60
2023/04/05 07:50:15;;;;;;;11.10;6.40;;;8.90;99.90;;;;;;5059922;28;20485;-54
2023/04/05 07:52:42;;;;;;;7.20;6.47;;;8.80;99.90;;;;;;5057713;28;20802;-61
2023/04/05 07:55:10;;;;;;;7.07;5.73;;;9.10;99.90;;;;;;5058772;28;20923;-62
2023/04/05 07:57:40;;;;;;;5.83;5.33;;;9.30;99.90;;;;;;5059516;28;20466;-62
2023/04/05 08:00:11;;;;;;;6.30;5.70;;;9.30;99.90;;;;;;5059481;28;20497;-59
2023/04/05 08:02:40;;;;;;;8.07;5.57;;;9.40;99.90;;;;;;5059719;28;20813;-57
2023/04/05 08:05:08;;;;;;;8.93;5.50;;;9.90;99.90;;;;;;5059134;28;20549;-60
2023/04/05 08:07:35;;;;;;;6.57;5.87;;;10.20;99.90;;;;;;5059060;28;20782;-60
2023/04/05 08:10:02;;;;;;;7.70;5.40;;;10.20;99.90;;;;;;5060181;28;20471;-57
2023/04/05 08:12:31;;;;;;;7.33;5.93;;;10.10;99.90;;;;;;5058794;28;20934;-62
2023/04/05 08:14:58;;;;;;;6.20;5.50;;;10.20;99.90;;;;;;5059210;28;20470;-62
2023/04/05 08:17:27;;;;;;;8.10;5.27;;;10.30;99.90;;;;;;5058080;28;20509;-59
2023/04/05 08:19:55;;;;;;;7.83;6.37;;;10.30;99.90;;;;;;5059396;28;20972;-62
2023/04/05 08:22:22;;;;;;;5.90;5.10;;;10.50;99.90;;;;;;5057968;28;20891;-62
2023/04/05 08:24:49;;;;;;;5.57;4.90;;;10.50;99.90;;;;;;5058288;28;20916;-62
2023/04/05 08:27:17;;;;;;;5.80;5.30;;;10.60;99.90;;;;;;5058402;28;20469;-62
2023/04/05 08:29:44;;;;;;;7.80;6.70;;;11.00;99.90;;;;;;5059232;28;20466;-60
2023/04/05 08:32:11;;;;;;;6.43;5.80;;;11.40;99.90;;;;;;5059151;28;20932;-61
2023/04/05 08:34:38;;;;;;;5.10;4.60;;;11.50;99.90;;;;;;5059126;28;20556;-62
2023/04/05 08:37:07;;;;;;;8.87;6.00;;;11.70;99.90;;;;;;5058478;28;20800;-60
2023/04/05 08:39:35;;;;;;;6.20;5.50;;;11.60;99.90;;;;;;5058689;28;20467;-62
2023/04/05 08:42:08;;;;;;;6.90;5.53;;;11.30;99.90;;;;;;5058647;28;20444;-60
2023/04/05 08:44:37;;;;;;;5.83;5.33;;;11.80;99.90;;;;;;5051894;28;20485;-63
2023/04/05 08:47:05;;;;;;;7.50;5.07;;;12.30;99.90;;;;;;5045165;28;20484;-62
2023/04/05 08:49:32;;;;;;;5.90;5.37;;;12.80;99.90;;;;;;5058515;28;20459;-62
2023/04/05 08:52:01;;;;;;;5.40;4.87;;;12.90;99.90;;;;;;5057175;28;20498;-61
2023/04/05 08:54:29;;;;;;;27.00;6.13;;;12.70;99.90;;;;;;5048954;28;20794;-63
2023/04/05 08:57:00;;;;;;;6.13;5.10;;;13.00;99.90;;;;;;5048617;28;20474;-62
2023/04/05 08:59:28;;;;;;;6.30;5.70;;;12.90;99.90;;;;;;5063183;28;20481;-62
2023/04/05 09:01:56;;;;;;;6.50;5.90;;;13.10;99.90;;;;;;5060977;28;20474;-62
2023/04/05 09:04:26;;;;;;;6.20;5.60;;;13.30;99.90;;;;;;5059886;28;20552;-62
2023/04/05 09:06:56;;;;;;;6.53;5.93;;;13.40;99.90;;;;;;5054101;28;20919;-62
2023/04/05 09:09:24;;;;;;;6.43;5.73;;;13.50;99.90;;;;;;5050659;28;20470;-56
2023/04/05 09:11:53;;;;;;;6.63;6.03;;;13.00;99.90;;;;;;5050629;28;20877;-62
2023/04/05 09:14:21;;;;;;;7.00;6.07;;;13.40;99.90;;;;;;5050128;28;20481;-59
2023/04/05 09:16:49;;;;;;;6.53;5.73;;;13.70;99.90;;;;;;5052472;28;20492;-61
2023/04/05 09:19:16;;;;;;;6.33;5.83;;;13.80;99.90;;;;;;5047625;28;20477;-60
2023/04/05 09:21:59;;;;;;;6.40;5.80;;;13.40;99.90;;;;;;5050704;28;20470;-59
2023/04/05 09:24:35;;;;;;;6.40;5.77;;;13.70;99.90;;;;;;5055469;28;20891;-54
2023/04/05 09:27:09;;;;;;;8.07;6.00;;;14.00;99.90;;;;;;5049258;28;20487;-63
2023/04/05 09:29:37;;;;;;;6.83;6.23;;;12.90;99.90;;;;;;5056549;28;20469;-61
2023/04/05 09:32:05;;;;;;;8.53;6.47;;;12.60;99.90;;;;;;5054660;28;20895;-63
2023/04/05 09:34:33;;;;;;;6.23;5.63;;;12.60;99.90;;;;;;5061793;28;20497;-63
2023/04/05 09:37:00;;;;;;;6.90;6.30;;;12.20;99.90;;;;;;5054980;28;20498;-58
2023/04/05 09:39:32;;;;;;;9.10;7.17;;;12.00;99.90;;;;;;5056381;28;20825;-57
2023/04/05 09:42:08;;;;;;;6.33;5.80;;;11.40;99.90;;;;;;5057094;28;20474;-58
2023/04/05 09:44:55;;;;;;;7.30;6.30;;;11.00;99.90;;;;;;5056634;28;20461;-63
2023/04/05 09:47:26;;;;;;;7.50;5.90;;;11.60;99.90;;;;;;5051322;28;20520;-63
2023/04/05 09:49:53;;;;;;;8.20;6.20;;;12.00;99.90;;;;;;5054820;28;20770;-59
2023/04/05 09:52:22;;;;;;;6.87;6.17;;;12.80;99.90;;;;;;5054762;28;21406;-60
2023/04/05 09:54:51;;;;;;;7.60;6.80;;;13.20;99.90;;;;;;5054885;28;20467;-58
2023/04/05 09:57:19;;;;;;;7.17;6.47;;;13.10;99.90;;;;;;5048648;28;20470;-60
2023/04/05 09:59:47;;;;;;;7.20;6.40;;;14.50;99.90;;;;;;5051908;28;20569;-60
2023/04/05 10:02:15;;;;;;;7.30;6.60;;;14.10;99.90;;;;;;5054766;28;20469;-61
2023/04/05 10:04:43;;;;;;;6.70;6.10;;;14.20;99.90;;;;;;5055115;28;20750;-60
2023/04/05 10:07:12;;;;;;;7.33;6.63;;;14.10;99.90;;;;;;5054911;28;20501;-62
2023/04/05 10:09:39;;;;;;;6.77;6.17;;;14.00;99.90;;;;;;5053573;28;20454;-61
2023/04/05 10:12:09;;;;;;;7.13;6.43;;;14.50;99.90;;;;;;5055346;28;20731;-61
2023/04/05 10:14:38;;;;;;;8.50;6.50;;;14.40;99.90;;;;;;5056641;28;20557;-61
2023/04/05 10:17:11;;;;;;;8.10;5.90;;;15.00;99.90;;;;;;5055628;28;20486;-61
2023/04/05 10:19:51;;;;;;;7.10;6.40;;;15.10;99.90;;;;;;5053618;28;20469;-61
2023/04/05 10:22:24;;;;;;;6.30;5.80;;;15.30;99.90;;;;;;5053518;28;20525;-58
2023/04/05 10:24:57;;;;;;;9.07;7.27;;;15.40;99.90;;;;;;5055450;28;20576;-61
2023/04/05 10:27:32;;;;;;;7.23;6.43;;;15.80;99.90;;;;;;5052769;28;20458;-59
2023/04/05 10:30:09;;;;;;;7.70;6.90;;;15.50;99.90;;;;;;5052188;28;20769;-58
2023/04/05 10:32:49;;;;;;;7.70;6.70;;;15.10;99.90;;;;;;5050172;28;20496;-59
2023/04/05 10:35:19;;;;;;;7.07;6.40;;;15.60;99.90;;;;;;5052670;28;20774;-62
2023/04/05 10:37:59;;;;;;;7.80;7.10;;;15.80;99.90;;;;;;5053069;28;20572;-58
2023/04/05 10:40:32;;;;;;;7.00;6.30;;;16.00;99.90;;;;;;5051783;28;20462;-60
2023/04/05 10:43:00;;;;;;;6.80;6.20;;;16.40;99.90;;;;;;5052821;28;20462;-62
2023/04/05 10:45:29;;;;;;;7.80;6.50;;;16.60;99.90;;;;;;5052482;28;20474;-62
2023/04/05 10:48:14;;;;;;;9.03;6.10;;;17.00;99.90;;;;;;5053013;28;20911;-60
2023/04/05 10:50:44;;;;;;;8.20;6.30;;;17.00;99.90;;;;;;5051169;28;20939;-57
2023/04/05 10:53:12;;;;;;;7.40;6.40;;;16.90;99.90;;;;;;5053766;28;20490;-60
2023/04/05 10:55:40;;;;;;;7.70;6.40;;;16.90;99.90;;;;;;5054334;28;21169;-62
2023/04/05 10:58:07;;;;;;;7.10;6.50;;;17.00;99.90;;;;;;5053931;28;20470;-61
2023/04/05 11:00:36;;;;;;;8.90;7.40;;;16.60;99.90;;;;;;5053123;28;20462;-59
2023/04/05 11:03:03;;;;;;;7.03;6.30;;;16.30;99.90;;;;;;5050857;28;20767;-59
2023/04/05 11:05:35;;;;;;;9.63;6.97;;;16.40;99.90;;;;;;5052162;28;20462;-56
2023/04/05 11:08:06;;;;;;;7.57;6.97;;;16.60;99.90;;;;;;5051336;28;20791;-61
2023/04/05 11:10:36;;;;;;;7.03;6.50;;;16.00;99.90;;;;;;5053400;28;20462;-61
2023/04/05 11:13:05;;;;;;;7.50;6.80;;;16.20;99.90;;;;;;5037340;28;20495;-62
2023/04/05 11:15:33;;;;;;;7.80;6.50;;;16.60;99.90;;;;;;5054077;28;20469;-57
2023/04/05 11:18:12;;;;;;;8.40;7.60;;;17.10;99.90;;;;;;5052154;28;21030;-62
2023/04/05 11:20:43;;;;;;;8.40;6.70;;;17.30;99.90;;;;;;5054225;28;20453;-60
2023/04/05 11:23:11;;;;;;;6.80;6.20;;;16.90;99.90;;;;;;5052480;28;20450;-59
2023/04/05 11:25:40;;;;;;;9.10;7.87;;;17.00;99.90;;;;;;5054771;28;20446;-61
2023/04/05 11:28:08;;;;;;;8.73;6.37;;;17.40;99.90;;;;;;5056065;28;20462;-63
2023/04/05 11:30:49;;;;;;;7.30;6.70;;;17.60;99.90;;;;;;5056505;28;20454;-63
2023/04/05 11:33:54;;;;;;;8.57;6.83;;;17.40;99.90;;;;;;5055961;28;20493;-60
2023/04/05 11:36:40;;;;;;;7.97;7.27;;;16.70;99.90;;;;;;5053816;28;20473;-62
2023/04/05 11:39:26;;;;;;;8.20;7.53;;;16.60;99.90;;;;;;5056210;28;20556;-63
2023/04/05 11:42:00;;;;;;;7.70;7.00;;;16.40;99.90;;;;;;5055636;28;20842;-61
2023/04/05 11:44:28;;;;;;;7.17;6.67;;;16.90;99.90;;;;;;5057986;28;20462;-61
2023/04/05 11:46:55;;;;;;;7.53;6.90;;;17.20;99.90;;;;;;5057859;28;20891;-60
2023/04/05 11:49:25;;;;;;;8.00;7.40;;;17.40;99.90;;;;;;5054879;28;20469;-58
2023/04/05 11:51:53;;;;;;;7.83;7.03;;;17.30;99.90;;;;;;5055945;28;20540;-59
2023/04/05 11:54:30;;;;;;;8.53;7.70;;;17.80;99.90;;;;;;5055176;28;20497;-59
2023/04/05 11:56:57;;;;;;;7.70;7.00;;;17.70;99.90;;;;;;5054719;28;20547;-61
2023/04/05 11:59:35;;;;;;;7.63;7.03;;;16.50;99.90;;;;;;5054807;28;20988;-62
2023/04/05 12:02:07;;;;;;;7.93;7.17;;;16.60;99.90;;;;;;5053590;28;20537;-62
2023/04/05 12:04:36;;;;;;;7.73;7.03;;;16.10;99.90;;;;;;5057757;28;20465;-62
2023/04/05 12:07:13;;;;;;;9.47;8.47;;;15.00;99.90;;;;;;5057487;28;20454;-62
2023/04/05 12:10:01;;;;;;;7.20;6.60;;;14.10;99.90;;;;;;5054955;28;20469;-62
2023/04/05 12:12:32;;;;;;;9.00;7.90;;;12.40;99.90;;;;;;5054364;28;20470;-62
2023/04/05 12:15:00;;;;;;;9.20;8.40;;;12.50;99.90;;;;;;5055357;28;21014;-59
2023/04/05 12:17:43;;;;;;;7.70;7.00;;;13.00;99.90;;;;;;5053257;28;20496;-63
2023/04/05 12:20:13;;;;;;;8.77;7.90;;;14.50;99.90;;;;;;5051648;28;20512;-61
2023/04/05 12:22:42;;;;;;;9.50;8.70;;;15.40;99.90;;;;;;5054374;28;20465;-58
2023/04/05 12:25:11;;;;;;;9.00;8.10;;;15.70;99.90;;;;;;5053073;28;20458;-61
2023/04/05 12:27:39;;;;;;;8.07;7.30;;;15.40;99.90;;;;;;5052879;28;20442;-60
2023/04/05 12:30:08;;;;;;;8.30;7.50;;;15.60;99.90;;;;;;5051992;28;20548;-60
2023/04/05 12:32:42;;;;;;;7.60;6.90;;;16.60;99.90;;;;;;5053133;28;20840;-61
2023/04/05 12:35:16;;;;;;;8.00;7.30;;;16.80;99.90;;;;;;5053258;28;20466;-62
2023/04/05 12:37:43;;;;;;;7.70;7.10;;;15.50;99.90;;;;;;5055256;28;20506;-60
2023/04/05 12:40:11;;;;;;;8.07;7.27;;;15.50;99.90;;;;;;5054450;28;20730;-60
2023/04/05 12:42:41;;;;;;;8.53;7.87;;;15.70;99.90;;;;;;5054514;28;20907;-61
2023/04/05 12:45:12;;;;;;;8.70;7.90;;;15.20;99.90;;;;;;5052704;28;20462;-61
2023/04/05 12:47:52;;;;;;;8.53;7.67;;;15.10;99.90;;;;;;5054941;28;20917;-62
2023/04/05 12:50:27;;;;;;;8.70;8.00;;;14.70;99.90;;;;;;5053335;28;20458;-60
2023/04/05 12:52:55;;;;;;;8.43;7.63;;;15.10;99.90;;;;;;5049487;28;20469;-61
2023/04/05 12:55:23;;;;;;;8.80;8.00;;;15.80;99.90;;;;;;5054556;28;20909;-60
2023/04/05 12:57:52;;;;;;;10.23;8.90;;;15.90;99.90;;;;;;5053502;28;20462;-60
2023/04/05 13:00:23;;;;;;;8.13;7.33;;;16.80;99.90;;;;;;5052403;28;20551;-62